Startpagina
METAR-TAF:

METAR-TAF

Vliegvelden :

Aéroport de Chambéry-Savoie

Chambery / Aix-Les-Bains, Frankrijk

breedte: 45-39N, lengte: 005-53E, hoogte: 235 m

Actueel weer

Dit bericht is 28 minuten geleden gemaakt, om 09:30 UTC
Wind 6 kt uit het noordnoordwesten, variërend tussen het westnoordwesten en het noordnoordoosten
Temperatuur 23°C
Vochtigheid 53%
Druk 1021 hPa
Zicht 10 km of meer
geen wolken onder 1500 m en geen cumulonimbus

METAR: LFLB 120930Z AUTO 34006KT 300V020 CAVOK 23/13 Q1021 NOSIG

Tijdstip: 11:58 (09:58 UTC)

Verwachting

Dit bericht is 4 uur en het 58 minuten geleden gemaakt, om 05:00 UTC
Verwachting geldig van 12 om 06 UTC tot 13 om 06 UTC
Wind 12 kt uit het noorden
Zicht 10 km of meer
geen wolken onder 1500 m en geen cumulonimbus
Kans 30% :
Tijdelijke
van 13 om 03 UTC tot 13 om 06 UTC
Wind 2 kt uit variabele richting

TAF: LFLB 120500Z 1206/1306 36012KT CAVOK PROB30 TEMPO 1303/1306 VRB02KT

Waarnemingen en weersverwachtingen van meer dan 4000 vliegvelden (METAR en TAF).

De beschikbare stations zijn de gele en rode punten op de kaart.

Ga met uw muis naar het station om de naam te zien.

Klik dan om waarnemingen en weersverwachtingen te zien.

kaart wijzigen: klik op de groene knoppen met een zwart kruis om in te zoomen, op de groene knop met een streepje om uit te zoomen of op de groene pijlen voor aangrenzende kaarten.


METAR-TAF: